createdAt,value
2023-05-13T00:01:31.025Z,91.02
2023-05-13T00:03:58.982Z,91.02
2023-05-13T00:06:26.975Z,90.84
2023-05-13T00:08:54.937Z,91.15
2023-05-13T00:11:24.403Z,91.41
2023-05-13T00:13:52.307Z,90.70
2023-05-13T00:16:20.293Z,90.89
2023-05-13T00:18:48.210Z,91.47
2023-05-13T00:21:16.658Z,91.30
2023-05-13T00:23:44.556Z,91.58
2023-05-13T00:26:12.441Z,90.97
2023-05-13T00:28:41.918Z,91.32
2023-05-13T00:31:11.612Z,91.57
2023-05-13T00:33:39.511Z,91.43
2023-05-13T00:36:10.084Z,91.54
2023-05-13T00:38:38.828Z,92.19
2023-05-13T00:41:08.197Z,91.78
2023-05-13T00:43:36.093Z,91.38
2023-05-13T00:46:06.339Z,92.11
2023-05-13T00:48:34.628Z,91.75
2023-05-13T00:51:02.705Z,91.67
2023-05-13T00:53:33.459Z,92.00
2023-05-13T00:56:01.466Z,92.24
2023-05-13T00:58:29.545Z,91.29
2023-05-13T01:01:09.858Z,91.04
2023-05-13T01:03:47.495Z,92.07
2023-05-13T01:06:22.553Z,91.30
2023-05-13T01:08:58.996Z,91.22
2023-05-13T01:11:29.525Z,91.04
2023-05-13T01:14:03.804Z,91.10
2023-05-13T01:16:40.729Z,91.45
2023-05-13T01:19:23.227Z,91.36
2023-05-13T01:21:54.943Z,91.37
2023-05-13T01:24:23.641Z,91.60
2023-05-13T01:26:51.907Z,91.28
2023-05-13T01:29:20.224Z,91.85
2023-05-13T01:31:50.439Z,92.25
2023-05-13T01:34:19.809Z,92.32
2023-05-13T01:36:49.058Z,92.30
2023-05-13T01:39:21.183Z,92.54
2023-05-13T01:41:50.864Z,92.01
2023-05-13T01:44:19.365Z,92.18
2023-05-13T01:46:49.007Z,92.60
2023-05-13T01:49:18.350Z,93.09
2023-05-13T01:51:47.038Z,93.14
2023-05-13T01:54:15.035Z,92.64
2023-05-13T01:56:49.911Z,92.59
2023-05-13T01:59:18.910Z,92.82
2023-05-13T02:01:46.875Z,92.98
2023-05-13T02:04:14.793Z,92.65
2023-05-13T02:06:43.170Z,92.59
2023-05-13T02:09:11.366Z,92.65
2023-05-13T02:11:41.037Z,92.58
2023-05-13T02:14:10.276Z,92.45
2023-05-13T02:16:38.196Z,92.65
2023-05-13T02:19:07.833Z,93.01
2023-05-13T02:21:35.829Z,92.76
2023-05-13T02:24:03.730Z,93.01
2023-05-13T02:26:32.374Z,92.80
2023-05-13T02:29:00.516Z,92.95
2023-05-13T02:31:30.024Z,92.84
2023-05-13T02:33:57.964Z,93.03
2023-05-13T02:36:26.638Z,92.79
2023-05-13T02:39:01.830Z,92.67
2023-05-13T02:41:30.376Z,92.69
2023-05-13T02:43:58.305Z,93.12
2023-05-13T02:46:26.471Z,92.90
2023-05-13T02:48:57.121Z,93.06
2023-05-13T02:51:25.033Z,92.86
2023-05-13T02:53:53.051Z,93.09
2023-05-13T02:56:20.959Z,93.09
2023-05-13T02:58:49.053Z,92.76
2023-05-13T03:01:17.058Z,92.84
2023-05-13T03:03:45.037Z,92.99
2023-05-13T03:06:14.423Z,92.52
2023-05-13T03:08:42.300Z,92.39
2023-05-13T03:11:10.185Z,92.37
2023-05-13T03:13:37.966Z,91.75
2023-05-13T03:16:06.166Z,91.65
2023-05-13T03:18:34.169Z,91.73
2023-05-13T03:21:02.085Z,92.02
2023-05-13T03:23:31.455Z,91.60
2023-05-13T03:26:02.028Z,91.63
2023-05-13T03:28:30.771Z,91.78
2023-05-13T03:30:59.378Z,92.06
2023-05-13T03:33:29.905Z,91.76
2023-05-13T03:35:58.150Z,92.11
2023-05-13T03:38:31.843Z,91.44
2023-05-13T03:40:59.968Z,91.55
2023-05-13T03:43:27.914Z,91.78
2023-05-13T03:46:00.542Z,91.33
2023-05-13T03:48:28.506Z,91.30
2023-05-13T03:50:59.141Z,91.35
2023-05-13T03:53:27.993Z,90.97
2023-05-13T03:55:57.770Z,90.93
2023-05-13T03:58:25.601Z,91.09
2023-05-13T04:00:53.501Z,91.63
2023-05-13T04:03:21.421Z,90.50
2023-05-13T04:05:50.319Z,90.38
2023-05-13T04:08:19.411Z,90.79
2023-05-13T04:10:47.351Z,90.92
2023-05-13T04:13:16.632Z,90.70
2023-05-13T04:15:44.557Z,90.12
2023-05-13T04:18:12.400Z,89.65
2023-05-13T04:20:40.470Z,90.80
2023-05-13T04:23:08.392Z,90.33
2023-05-13T04:25:37.497Z,89.76
2023-05-13T04:28:06.205Z,89.77
2023-05-13T04:30:43.789Z,90.35
2023-05-13T04:33:12.288Z,89.59
2023-05-13T04:35:43.843Z,89.78
2023-05-13T04:38:11.807Z,89.35
2023-05-13T04:40:39.978Z,89.68
2023-05-13T04:43:12.611Z,90.04
2023-05-13T04:45:51.998Z,89.58
2023-05-13T04:48:20.527Z,89.84
2023-05-13T04:50:48.939Z,90.33
2023-05-13T04:53:18.082Z,89.28
2023-05-13T04:55:47.852Z,89.50
2023-05-13T04:58:16.020Z,89.70
2023-05-13T05:00:44.138Z,89.92
2023-05-13T05:03:13.343Z,89.73
2023-05-13T05:05:41.600Z,89.93
2023-05-13T05:08:10.444Z,89.45
2023-05-13T05:10:38.582Z,89.48
2023-05-13T05:13:07.637Z,89.33
2023-05-13T05:15:35.608Z,88.97
2023-05-13T05:18:06.595Z,90.11
2023-05-13T05:20:39.121Z,89.20
2023-05-13T05:23:11.294Z,89.00
2023-05-13T05:25:39.744Z,88.73
2023-05-13T05:28:09.336Z,88.91
2023-05-13T05:30:41.425Z,89.00
2023-05-13T05:33:19.305Z,88.84
2023-05-13T05:35:48.810Z,88.98
2023-05-13T05:38:18.612Z,88.94
2023-05-13T05:40:47.932Z,89.04
2023-05-13T05:43:16.440Z,87.69
2023-05-13T05:45:45.166Z,88.72
2023-05-13T05:48:17.218Z,87.75
2023-05-13T05:50:45.371Z,87.03
2023-05-13T05:53:18.662Z,87.84
2023-05-13T05:55:46.929Z,88.05
2023-05-13T05:58:17.200Z,86.78
2023-05-13T06:00:45.766Z,86.44
2023-05-13T06:03:13.802Z,86.85
2023-05-13T06:05:41.897Z,86.49
2023-05-13T06:08:09.713Z,86.12
2023-05-13T06:10:39.185Z,87.23
2023-05-13T06:13:07.203Z,87.01
2023-05-13T06:15:35.980Z,86.92
2023-05-13T06:18:05.628Z,87.65
2023-05-13T06:20:35.653Z,87.90
2023-05-13T06:23:03.534Z,86.97
2023-05-13T06:25:31.409Z,87.42
2023-05-13T06:28:02.874Z,87.72
2023-05-13T06:30:31.199Z,86.67
2023-05-13T06:33:02.262Z,86.87
2023-05-13T06:35:31.389Z,87.14
2023-05-13T06:38:00.796Z,86.88
2023-05-13T06:40:29.283Z,87.27
2023-05-13T06:42:57.468Z,86.77
2023-05-13T06:45:32.361Z,87.66
2023-05-13T06:48:00.503Z,87.01
2023-05-13T06:50:28.410Z,86.81
2023-05-13T06:52:56.356Z,86.74
2023-05-13T06:55:24.213Z,86.38
2023-05-13T06:57:53.100Z,86.99
2023-05-13T07:00:21.612Z,86.32
2023-05-13T07:02:51.024Z,86.63
2023-05-13T07:05:19.018Z,85.31
2023-05-13T07:07:46.810Z,84.23
2023-05-13T07:10:14.705Z,83.83
2023-05-13T07:12:42.667Z,83.85
2023-05-13T07:15:11.388Z,82.45
2023-05-13T07:17:39.359Z,82.86
2023-05-13T07:20:09.998Z,82.44
2023-05-13T07:22:37.811Z,82.31
2023-05-13T07:25:06.773Z,81.63
2023-05-13T07:27:34.660Z,82.13
2023-05-13T07:30:02.619Z,80.98
2023-05-13T07:32:31.280Z,81.70
2023-05-13T07:34:59.123Z,81.93
2023-05-13T07:37:28.343Z,81.67
2023-05-13T07:39:56.281Z,79.71
2023-05-13T07:42:24.203Z,81.26
2023-05-13T07:44:52.742Z,79.62
2023-05-13T07:47:20.709Z,79.35
2023-05-13T07:49:49.967Z,78.70
2023-05-13T07:52:17.969Z,78.55
2023-05-13T07:54:47.227Z,79.27
2023-05-13T07:57:15.097Z,79.10
2023-05-13T07:59:44.661Z,78.93
2023-05-13T08:02:13.114Z,78.42
2023-05-13T08:04:41.267Z,78.71
2023-05-13T08:07:10.877Z,78.39
2023-05-13T08:09:38.804Z,78.25
2023-05-13T08:12:08.699Z,78.50
2023-05-13T08:14:37.206Z,78.66
2023-05-13T08:17:06.348Z,79.84
2023-05-13T08:19:34.724Z,79.56
2023-05-13T08:22:02.592Z,79.26
2023-05-13T08:24:30.751Z,79.18
2023-05-13T08:26:59.061Z,80.24
2023-05-13T08:29:28.285Z,78.64
2023-05-13T08:31:56.260Z,79.19
2023-05-13T08:34:24.130Z,79.06
2023-05-13T08:36:51.997Z,79.21
2023-05-13T08:39:19.905Z,77.92
2023-05-13T08:41:48.418Z,76.73
2023-05-13T08:44:19.259Z,78.26
2023-05-13T08:46:54.866Z,77.25
2023-05-13T08:49:22.765Z,77.67
2023-05-13T08:51:50.825Z,75.21
2023-05-13T08:54:20.005Z,75.09
2023-05-13T08:56:49.016Z,75.12
2023-05-13T08:59:17.040Z,75.75
2023-05-13T09:01:46.081Z,74.58
2023-05-13T09:04:15.501Z,74.63
2023-05-13T09:06:43.338Z,75.03
2023-05-13T09:09:11.695Z,74.30
2023-05-13T09:11:41.549Z,75.45
2023-05-13T09:14:12.200Z,74.81
2023-05-13T09:16:40.567Z,75.06
2023-05-13T09:19:08.905Z,75.52
2023-05-13T09:21:38.986Z,74.92
2023-05-13T09:24:11.188Z,74.34
2023-05-13T09:26:40.357Z,75.32
2023-05-13T09:29:19.427Z,74.81
2023-05-13T09:31:48.797Z,74.99
2023-05-13T09:34:25.154Z,74.31
2023-05-13T09:36:59.753Z,75.00
2023-05-13T09:39:28.077Z,73.69
2023-05-13T09:41:56.488Z,74.34
2023-05-13T09:44:24.474Z,73.78
2023-05-13T09:46:54.227Z,73.59
2023-05-13T09:49:24.559Z,73.38
2023-05-13T09:51:52.516Z,73.07
2023-05-13T09:54:22.211Z,73.64
2023-05-13T09:56:50.140Z,73.36
2023-05-13T09:59:18.189Z,73.20
2023-05-13T10:01:47.721Z,73.04
2023-05-13T10:04:16.556Z,73.13
2023-05-13T10:06:46.424Z,73.84
2023-05-13T10:09:15.551Z,73.39
2023-05-13T10:11:48.233Z,73.33
2023-05-13T10:14:16.983Z,73.00
2023-05-13T10:16:47.922Z,72.08
2023-05-13T10:19:16.253Z,71.90
2023-05-13T10:21:45.362Z,71.98
2023-05-13T10:24:14.583Z,72.13
2023-05-13T10:26:45.098Z,72.04
2023-05-13T10:29:13.796Z,71.46
2023-05-13T10:31:43.062Z,71.20
2023-05-13T10:34:12.148Z,70.52
2023-05-13T10:36:54.868Z,71.12
2023-05-13T10:39:58.481Z,70.70
2023-05-13T10:42:42.784Z,71.40
2023-05-13T10:45:12.153Z,70.77
2023-05-13T10:47:40.374Z,71.26
2023-05-13T10:50:23.484Z,71.38
2023-05-13T10:52:52.410Z,72.41
2023-05-13T10:55:21.464Z,71.26
2023-05-13T10:58:15.442Z,71.55
2023-05-13T11:00:44.707Z,72.05
2023-05-13T11:03:29.319Z,71.60
2023-05-13T11:06:05.262Z,71.40
2023-05-13T11:08:40.581Z,71.31
2023-05-13T11:11:27.559Z,71.47
2023-05-13T11:14:03.951Z,71.95
2023-05-13T11:16:31.960Z,71.42
2023-05-13T11:19:02.082Z,70.78
2023-05-13T11:21:31.796Z,70.84
2023-05-13T11:24:03.649Z,71.54
2023-05-13T11:26:47.887Z,71.40
2023-05-13T11:29:29.825Z,72.41
2023-05-13T11:32:00.608Z,73.10
2023-05-13T11:34:29.411Z,74.34
2023-05-13T11:37:07.647Z,73.20
2023-05-13T11:39:36.632Z,72.85
2023-05-13T11:42:08.594Z,72.44
2023-05-13T11:44:45.438Z,72.29
2023-05-13T11:47:13.337Z,72.13
2023-05-13T11:49:42.665Z,72.10
2023-05-13T11:52:11.949Z,72.49
2023-05-13T11:54:44.928Z,72.52
2023-05-13T11:57:23.874Z,71.97
2023-05-13T11:59:56.125Z,72.09
2023-05-13T12:02:26.102Z,72.22
2023-05-13T12:04:54.236Z,72.60
2023-05-13T12:07:23.756Z,73.56
2023-05-13T12:09:52.035Z,72.71
2023-05-13T12:12:21.167Z,72.49
2023-05-13T12:14:51.020Z,72.75
2023-05-13T12:17:21.937Z,73.52
2023-05-13T12:20:06.445Z,72.33
2023-05-13T12:22:34.957Z,73.09
2023-05-13T12:25:24.159Z,73.25
2023-05-13T12:27:53.602Z,73.07
2023-05-13T12:30:21.692Z,72.74
2023-05-13T12:32:51.369Z,71.76
2023-05-13T12:35:19.395Z,71.33
2023-05-13T12:38:00.341Z,71.77
2023-05-13T12:40:28.353Z,72.79
2023-05-13T12:42:58.640Z,70.71
2023-05-13T12:45:31.361Z,71.01
2023-05-13T12:48:01.702Z,71.01
2023-05-13T12:50:29.839Z,71.73
2023-05-13T12:52:59.833Z,73.13
2023-05-13T12:55:28.267Z,71.35
2023-05-13T12:57:57.407Z,71.28
2023-05-13T13:00:25.552Z,71.14
2023-05-13T13:02:54.188Z,71.82
2023-05-13T13:05:24.549Z,71.55
2023-05-13T13:07:52.671Z,71.00
2023-05-13T13:10:21.118Z,70.46
2023-05-13T13:12:49.534Z,70.40
2023-05-13T13:15:17.416Z,70.44
2023-05-13T13:17:45.411Z,70.04
2023-05-13T13:20:13.570Z,70.08
2023-05-13T13:22:42.955Z,69.43
2023-05-13T13:25:11.154Z,69.64
2023-05-13T13:27:39.032Z,69.69
2023-05-13T13:30:08.756Z,70.98
2023-05-13T13:32:36.695Z,70.62
2023-05-13T13:35:05.697Z,71.22
2023-05-13T13:37:35.403Z,70.66
2023-05-13T13:40:06.438Z,70.09
2023-05-13T13:42:44.139Z,71.22
2023-05-13T13:45:13.765Z,69.78
2023-05-13T13:47:41.933Z,68.91
2023-05-13T13:50:11.883Z,68.12
2023-05-13T13:52:39.928Z,67.58
2023-05-13T13:55:11.659Z,67.09
2023-05-13T13:57:39.736Z,67.02
2023-05-13T14:00:09.522Z,67.67
2023-05-13T14:02:37.895Z,68.00
2023-05-13T14:05:06.756Z,68.76
2023-05-13T14:07:34.633Z,69.38
2023-05-13T14:10:02.525Z,69.53
2023-05-13T14:12:31.928Z,69.91
2023-05-13T14:14:59.966Z,69.92
2023-05-13T14:17:27.988Z,70.04
2023-05-13T14:19:56.123Z,70.23
2023-05-13T14:22:24.532Z,70.33
2023-05-13T14:24:53.283Z,70.08
2023-05-13T14:27:24.551Z,69.95
2023-05-13T14:29:54.130Z,69.60
2023-05-13T14:32:22.151Z,69.90
2023-05-13T14:34:50.060Z,69.71
2023-05-13T14:37:18.003Z,71.30
2023-05-13T14:39:48.359Z,70.80
2023-05-13T14:42:17.849Z,71.59
2023-05-13T14:44:46.157Z,71.40
2023-05-13T14:47:15.405Z,72.64
2023-05-13T14:49:43.222Z,71.98
2023-05-13T14:52:11.127Z,71.50
2023-05-13T14:54:39.074Z,72.26
2023-05-13T14:57:07.522Z,72.42
2023-05-13T14:59:35.767Z,71.82
2023-05-13T15:02:04.357Z,71.94
2023-05-13T15:04:33.776Z,73.12
2023-05-13T15:07:03.343Z,71.73
2023-05-13T15:09:31.155Z,71.23
2023-05-13T15:11:58.989Z,71.00
2023-05-13T15:14:26.966Z,70.50
2023-05-13T15:16:54.920Z,69.80
2023-05-13T15:19:23.283Z,69.98
2023-05-13T15:21:52.573Z,69.46
2023-05-13T15:24:20.365Z,70.48
2023-05-13T15:26:49.925Z,70.91
2023-05-13T15:29:17.894Z,69.06
2023-05-13T15:31:45.760Z,69.45
2023-05-13T15:34:13.692Z,69.35
2023-05-13T15:36:41.481Z,69.87
2023-05-13T15:39:11.229Z,69.67
2023-05-13T15:41:39.233Z,69.30
2023-05-13T15:44:07.125Z,69.59
2023-05-13T15:46:35.105Z,70.36
2023-05-13T15:49:03.496Z,71.03
2023-05-13T15:51:31.719Z,70.43
2023-05-13T15:53:59.932Z,71.13
2023-05-13T15:56:29.336Z,71.68
2023-05-13T15:58:57.187Z,70.74
2023-05-13T16:01:25.132Z,70.76
2023-05-13T16:03:53.079Z,71.27
2023-05-13T16:06:20.912Z,70.80
2023-05-13T16:08:49.094Z,69.79
2023-05-13T16:11:16.982Z,69.70
2023-05-13T16:13:46.207Z,69.62
2023-05-13T16:16:14.122Z,70.69
2023-05-13T16:18:43.202Z,70.52
2023-05-13T16:21:11.076Z,70.55
2023-05-13T16:23:38.885Z,69.70
2023-05-13T16:26:07.534Z,70.14
2023-05-13T16:28:35.733Z,71.26
2023-05-13T16:31:05.073Z,71.80
2023-05-13T16:33:33.795Z,72.67
2023-05-13T16:36:01.777Z,71.49
2023-05-13T16:38:30.421Z,70.85
2023-05-13T16:40:58.473Z,71.95
2023-05-13T16:43:26.381Z,71.43
2023-05-13T16:45:54.284Z,72.15
2023-05-13T16:48:23.601Z,71.91
2023-05-13T16:50:51.970Z,72.75
2023-05-13T16:53:22.095Z,72.89
2023-05-13T16:55:50.567Z,72.84
2023-05-13T16:58:18.800Z,72.77
2023-05-13T17:00:46.732Z,73.22
2023-05-13T17:03:14.821Z,73.05
2023-05-13T17:05:44.710Z,73.09
2023-05-13T17:08:12.541Z,73.99
2023-05-13T17:10:40.546Z,73.77
2023-05-13T17:13:08.387Z,73.34
2023-05-13T17:15:36.457Z,74.58
2023-05-13T17:18:04.562Z,74.80
2023-05-13T17:20:32.483Z,73.86
2023-05-13T17:23:01.857Z,75.23
2023-05-13T17:25:29.684Z,74.87
2023-05-13T17:27:57.569Z,75.01
2023-05-13T17:30:25.504Z,74.83
2023-05-13T17:32:53.981Z,74.42
2023-05-13T17:35:23.156Z,74.54
2023-05-13T17:37:51.109Z,75.03
2023-05-13T17:40:21.285Z,74.96
2023-05-13T17:42:50.853Z,75.85
2023-05-13T17:45:20.252Z,76.45
2023-05-13T17:47:48.224Z,75.13
2023-05-13T17:50:18.249Z,76.12
2023-05-13T17:52:46.271Z,76.80
2023-05-13T17:55:14.203Z,76.16
2023-05-13T17:57:43.602Z,75.75
2023-05-13T18:00:12.917Z,76.28
2023-05-13T18:02:41.069Z,76.90
2023-05-13T18:05:10.534Z,77.21
2023-05-13T18:07:38.409Z,76.96
2023-05-13T18:10:07.543Z,77.63
2023-05-13T18:12:35.452Z,77.16
2023-05-13T18:15:05.384Z,76.26
2023-05-13T18:17:33.742Z,76.55
2023-05-13T18:20:01.586Z,77.05
2023-05-13T18:22:29.463Z,77.06
2023-05-13T18:24:57.339Z,78.20
2023-05-13T18:27:25.648Z,77.94
2023-05-13T18:29:53.532Z,78.24
2023-05-13T18:32:22.742Z,78.02
2023-05-13T18:34:50.652Z,77.54
2023-05-13T18:37:18.448Z,78.18
2023-05-13T18:39:46.749Z,77.91
2023-05-13T18:42:14.624Z,78.60
2023-05-13T18:44:42.466Z,78.10
2023-05-13T18:47:11.155Z,77.50
2023-05-13T18:49:40.463Z,79.08
2023-05-13T18:52:08.646Z,77.89
2023-05-13T18:54:36.563Z,77.84
2023-05-13T18:57:04.720Z,78.69
2023-05-13T18:59:32.657Z,78.21
2023-05-13T19:02:00.662Z,78.75
2023-05-13T19:04:28.796Z,78.00
2023-05-13T19:06:58.171Z,78.63
2023-05-13T19:09:25.988Z,77.97
2023-05-13T19:11:53.847Z,78.43
2023-05-13T19:14:21.838Z,79.27
2023-05-13T19:16:49.774Z,78.87
2023-05-13T19:19:17.865Z,79.14
2023-05-13T19:21:45.797Z,79.02
2023-05-13T19:24:15.080Z,79.39
2023-05-13T19:26:42.896Z,79.84
2023-05-13T19:29:10.779Z,79.72
2023-05-13T19:31:38.656Z,80.59
2023-05-13T19:34:07.606Z,80.79
2023-05-13T19:36:35.602Z,80.63
2023-05-13T19:39:03.908Z,81.52
2023-05-13T19:41:34.487Z,82.02
2023-05-13T19:44:02.697Z,81.73
2023-05-13T19:46:31.047Z,82.63
2023-05-13T19:48:59.303Z,83.17
2023-05-13T19:51:27.567Z,83.66
2023-05-13T19:53:56.677Z,84.35
2023-05-13T19:56:24.684Z,84.29
2023-05-13T19:58:53.865Z,84.89
2023-05-13T20:01:21.855Z,85.31
2023-05-13T20:03:49.871Z,85.38
2023-05-13T20:06:17.727Z,85.90
2023-05-13T20:08:45.933Z,85.53
2023-05-13T20:11:13.802Z,85.88
2023-05-13T20:13:41.674Z,85.62
2023-05-13T20:16:10.889Z,85.25
2023-05-13T20:18:39.247Z,86.35
2023-05-13T20:21:07.188Z,86.24
2023-05-13T20:23:35.326Z,86.91
2023-05-13T20:26:03.214Z,87.23
2023-05-13T20:28:31.211Z,87.45
2023-05-13T20:30:59.159Z,87.04
2023-05-13T20:33:28.371Z,86.60
2023-05-13T20:35:56.239Z,87.23
2023-05-13T20:38:24.195Z,87.49
2023-05-13T20:40:51.983Z,87.40
2023-05-13T20:43:19.867Z,87.46
2023-05-13T20:45:49.043Z,87.40
2023-05-13T20:48:16.908Z,88.16
2023-05-13T20:50:46.283Z,88.37
2023-05-13T20:53:14.371Z,88.85
2023-05-13T20:55:42.183Z,88.86
2023-05-13T20:58:10.018Z,88.51
2023-05-13T21:00:37.883Z,88.80
2023-05-13T21:03:06.382Z,88.58
2023-05-13T21:05:34.338Z,88.66
2023-05-13T21:08:03.574Z,88.97
2023-05-13T21:10:31.384Z,89.19
2023-05-13T21:12:59.283Z,88.89
2023-05-13T21:15:27.324Z,89.42
2023-05-13T21:17:55.420Z,89.29
2023-05-13T21:20:23.496Z,89.40
2023-05-13T21:22:51.650Z,89.60
2023-05-13T21:25:20.846Z,90.06
2023-05-13T21:27:49.893Z,89.95
2023-05-13T21:30:17.760Z,89.64
2023-05-13T21:32:45.734Z,89.64
2023-05-13T21:35:13.598Z,89.34
2023-05-13T21:37:41.843Z,89.84
2023-05-13T21:40:10.691Z,89.91
2023-05-13T21:42:39.899Z,89.87
2023-05-13T21:45:08.627Z,90.23
2023-05-13T21:47:36.825Z,90.68
2023-05-13T21:50:04.963Z,89.83
2023-05-13T21:52:32.830Z,90.22
2023-05-13T21:55:00.757Z,90.43
2023-05-13T21:57:29.009Z,90.85
2023-05-13T21:59:58.192Z,90.36
2023-05-13T22:02:26.096Z,91.45
2023-05-13T22:04:54.079Z,92.12
2023-05-13T22:07:21.933Z,93.07
2023-05-13T22:09:50.553Z,93.08
2023-05-13T22:12:18.455Z,93.65
2023-05-13T22:14:46.320Z,93.86
2023-05-13T22:17:15.666Z,94.29
2023-05-13T22:19:43.553Z,94.06
2023-05-13T22:22:11.540Z,94.21
2023-05-13T22:24:39.440Z,94.48
2023-05-13T22:27:07.540Z,94.67
2023-05-13T22:29:35.462Z,94.92
2023-05-13T22:32:03.482Z,95.31
2023-05-13T22:34:34.124Z,96.37
2023-05-13T22:37:02.632Z,95.83
2023-05-13T22:39:30.478Z,96.66
2023-05-13T22:41:58.312Z,95.98
2023-05-13T22:44:26.134Z,95.88
2023-05-13T22:46:54.237Z,96.97
2023-05-13T22:49:22.286Z,96.20
2023-05-13T22:51:51.940Z,96.33
2023-05-13T22:54:19.878Z,96.07
2023-05-13T22:56:47.728Z,96.40
2023-05-13T22:59:15.548Z,96.07
2023-05-13T23:01:43.520Z,96.09
2023-05-13T23:04:11.468Z,96.87
2023-05-13T23:06:39.423Z,96.80
2023-05-13T23:09:10.259Z,97.42
2023-05-13T23:11:38.312Z,97.20
2023-05-13T23:14:06.175Z,96.42
2023-05-13T23:16:34.204Z,96.29
2023-05-13T23:19:02.212Z,97.84
2023-05-13T23:21:30.514Z,98.11
2023-05-13T23:23:58.409Z,98.46
2023-05-13T23:26:27.621Z,98.77
2023-05-13T23:28:55.466Z,98.89
2023-05-13T23:31:23.375Z,98.61
2023-05-13T23:33:51.282Z,98.70
2023-05-13T23:36:19.181Z,98.34
2023-05-13T23:38:47.002Z,98.67
2023-05-13T23:41:14.838Z,98.40
2023-05-13T23:43:44.023Z,97.86
2023-05-13T23:46:11.962Z,97.55
2023-05-13T23:48:40.281Z,97.39
2023-05-13T23:51:08.133Z,97.44
2023-05-13T23:53:36.111Z,97.12
2023-05-13T23:56:04.006Z,96.18
2023-05-13T23:58:31.860Z,97.47
